sensor_id;sensor_type;location;lat;lon;timestamp;P1;durP1;ratioP1;P2;durP2;ratioP2
15856;SDS011;8028;53.612;10.038;2022-08-01T00:00:32;13.13;;;12.02;;
15856;SDS011;8028;53.612;10.038;2022-08-01T00:02:58;13.07;;;11.98;;
15856;SDS011;8028;53.612;10.038;2022-08-01T00:05:23;13.88;;;12.73;;
15856;SDS011;8028;53.612;10.038;2022-08-01T00:07:49;13.18;;;12.07;;
15856;SDS011;8028;53.612;10.038;2022-08-01T00:10:15;11.35;;;10.38;;
15856;SDS011;8028;53.612;10.038;2022-08-01T00:12:42;13.15;;;12.15;;
15856;SDS011;8028;53.612;10.038;2022-08-01T00:15:09;12.70;;;11.70;;
15856;SDS011;8028;53.612;10.038;2022-08-01T00:24:27;12.48;;;11.48;;
15856;SDS011;8028;53.612;10.038;2022-08-01T00:30:06;13.88;;;12.68;;
15856;SDS011;8028;53.612;10.038;2022-08-01T00:33:15;13.15;;;11.88;;
15856;SDS011;8028;53.612;10.038;2022-08-01T00:36:34;13.38;;;12.00;;
15856;SDS011;8028;53.612;10.038;2022-08-01T00:39:23;14.15;;;12.85;;
15856;SDS011;8028;53.612;10.038;2022-08-01T00:42:29;14.15;;;12.88;;
15856;SDS011;8028;53.612;10.038;2022-08-01T00:45:47;14.27;;;13.02;;
15856;SDS011;8028;53.612;10.038;2022-08-01T00:52:59;14.50;;;13.10;;
15856;SDS011;8028;53.612;10.038;2022-08-01T01:03:36;14.63;;;13.30;;
15856;SDS011;8028;53.612;10.038;2022-08-01T01:25:04;13.93;;;12.63;;
15856;SDS011;8028;53.612;10.038;2022-08-01T01:35:37;13.27;;;11.88;;
15856;SDS011;8028;53.612;10.038;2022-08-01T01:38:24;13.40;;;11.60;;
15856;SDS011;8028;53.612;10.038;2022-08-01T01:41:12;13.48;;;12.18;;
15856;SDS011;8028;53.612;10.038;2022-08-01T01:43:59;12.15;;;10.98;;
15856;SDS011;8028;53.612;10.038;2022-08-01T01:46:34;16.05;;;13.35;;
15856;SDS011;8028;53.612;10.038;2022-08-01T01:49:07;16.73;;;12.65;;
15856;SDS011;8028;53.612;10.038;2022-08-01T01:51:35;15.90;;;11.68;;
15856;SDS011;8028;53.612;10.038;2022-08-01T01:54:14;15.10;;;12.82;;
15856;SDS011;8028;53.612;10.038;2022-08-01T01:57:06;14.23;;;12.68;;
15856;SDS011;8028;53.612;10.038;2022-08-01T01:59:39;13.45;;;11.95;;
15856;SDS011;8028;53.612;10.038;2022-08-01T02:02:09;14.90;;;12.25;;
15856;SDS011;8028;53.612;10.038;2022-08-01T02:04:39;13.93;;;12.52;;
15856;SDS011;8028;53.612;10.038;2022-08-01T02:07:11;14.55;;;13.07;;
15856;SDS011;8028;53.612;10.038;2022-08-01T02:09:40;14.50;;;13.15;;
15856;SDS011;8028;53.612;10.038;2022-08-01T02:12:09;16.20;;;12.55;;
15856;SDS011;8028;53.612;10.038;2022-08-01T02:14:36;13.32;;;11.98;;
15856;SDS011;8028;53.612;10.038;2022-08-01T02:17:05;13.98;;;12.60;;
15856;SDS011;8028;53.612;10.038;2022-08-01T02:19:34;16.08;;;12.90;;
15856;SDS011;8028;53.612;10.038;2022-08-01T02:22:14;14.07;;;11.80;;
15856;SDS011;8028;53.612;10.038;2022-08-01T02:24:52;14.25;;;12.85;;
15856;SDS011;8028;53.612;10.038;2022-08-01T02:28:09;13.02;;;11.73;;
15856;SDS011;8028;53.612;10.038;2022-08-01T02:30:39;12.98;;;11.68;;
15856;SDS011;8028;53.612;10.038;2022-08-01T02:35:43;13.48;;;10.07;;
15856;SDS011;8028;53.612;10.038;2022-08-01T02:38:13;12.45;;;11.15;;
15856;SDS011;8028;53.612;10.038;2022-08-01T02:40:41;13.23;;;11.82;;
15856;SDS011;8028;53.612;10.038;2022-08-01T02:43:10;12.07;;;10.18;;
15856;SDS011;8028;53.612;10.038;2022-08-01T02:45:39;13.13;;;9.57;;
15856;SDS011;8028;53.612;10.038;2022-08-01T02:48:11;14.02;;;11.65;;
15856;SDS011;8028;53.612;10.038;2022-08-01T02:50:39;12.30;;;11.10;;
15856;SDS011;8028;53.612;10.038;2022-08-01T02:53:09;12.13;;;10.70;;
15856;SDS011;8028;53.612;10.038;2022-08-01T02:55:38;11.45;;;10.43;;
15856;SDS011;8028;53.612;10.038;2022-08-01T02:58:06;10.43;;;9.55;;
15856;SDS011;8028;53.612;10.038;2022-08-01T03:00:33;12.65;;;9.93;;
15856;SDS011;8028;53.612;10.038;2022-08-01T03:03:00;9.75;;;8.85;;
15856;SDS011;8028;53.612;10.038;2022-08-01T03:05:28;10.38;;;9.38;;
15856;SDS011;8028;53.612;10.038;2022-08-01T03:07:55;10.43;;;9.52;;
15856;SDS011;8028;53.612;10.038;2022-08-01T03:10:21;9.10;;;8.25;;
15856;SDS011;8028;53.612;10.038;2022-08-01T03:12:49;11.07;;;9.52;;
15856;SDS011;8028;53.612;10.038;2022-08-01T03:15:16;10.68;;;9.65;;
15856;SDS011;8028;53.612;10.038;2022-08-01T03:17:44;10.07;;;9.07;;
15856;SDS011;8028;53.612;10.038;2022-08-01T03:20:12;10.30;;;9.30;;
15856;SDS011;8028;53.612;10.038;2022-08-01T03:22:40;12.98;;;10.02;;
15856;SDS011;8028;53.612;10.038;2022-08-01T03:25:08;21.75;;;10.27;;
15856;SDS011;8028;53.612;10.038;2022-08-01T03:27:36;10.00;;;9.00;;
15856;SDS011;8028;53.612;10.038;2022-08-01T03:30:03;11.65;;;8.93;;
15856;SDS011;8028;53.612;10.038;2022-08-01T03:32:30;9.02;;;8.23;;
15856;SDS011;8028;53.612;10.038;2022-08-01T03:34:56;10.68;;;8.85;;
15856;SDS011;8028;53.612;10.038;2022-08-01T03:37:27;9.88;;;8.95;;
15856;SDS011;8028;53.612;10.038;2022-08-01T03:42:36;9.65;;;8.15;;
15856;SDS011;8028;53.612;10.038;2022-08-01T03:45:07;9.82;;;8.88;;
15856;SDS011;8028;53.612;10.038;2022-08-01T03:47:35;9.73;;;8.73;;
15856;SDS011;8028;53.612;10.038;2022-08-01T03:50:04;9.05;;;8.25;;
15856;SDS011;8028;53.612;10.038;2022-08-01T03:52:32;8.20;;;7.60;;
15856;SDS011;8028;53.612;10.038;2022-08-01T03:55:00;10.70;;;6.78;;
15856;SDS011;8028;53.612;10.038;2022-08-01T03:57:30;9.85;;;7.80;;
15856;SDS011;8028;53.612;10.038;2022-08-01T03:59:57;7.60;;;6.85;;
15856;SDS011;8028;53.612;10.038;2022-08-01T04:02:24;6.65;;;6.13;;
15856;SDS011;8028;53.612;10.038;2022-08-01T04:04:52;6.85;;;6.05;;
15856;SDS011;8028;53.612;10.038;2022-08-01T04:07:25;6.78;;;6.22;;
15856;SDS011;8028;53.612;10.038;2022-08-01T04:09:52;6.13;;;5.53;;
15856;SDS011;8028;53.612;10.038;2022-08-01T04:12:18;7.22;;;5.63;;
15856;SDS011;8028;53.612;10.038;2022-08-01T04:14:43;8.43;;;6.47;;
15856;SDS011;8028;53.612;10.038;2022-08-01T04:17:09;7.93;;;5.80;;
15856;SDS011;8028;53.612;10.038;2022-08-01T04:19:35;6.68;;;6.18;;
15856;SDS011;8028;53.612;10.038;2022-08-01T04:22:00;6.72;;;6.13;;
15856;SDS011;8028;53.612;10.038;2022-08-01T04:24:27;7.35;;;6.05;;
15856;SDS011;8028;53.612;10.038;2022-08-01T04:26:55;7.00;;;5.93;;
15856;SDS011;8028;53.612;10.038;2022-08-01T04:29:23;6.25;;;5.63;;
15856;SDS011;8028;53.612;10.038;2022-08-01T04:31:49;5.20;;;4.75;;
15856;SDS011;8028;53.612;10.038;2022-08-01T04:34:20;7.45;;;6.20;;
15856;SDS011;8028;53.612;10.038;2022-08-01T04:36:48;6.60;;;4.88;;
15856;SDS011;8028;53.612;10.038;2022-08-01T04:39:15;5.35;;;4.78;;
15856;SDS011;8028;53.612;10.038;2022-08-01T04:41:43;5.25;;;4.85;;
15856;SDS011;8028;53.612;10.038;2022-08-01T04:44:12;5.57;;;4.85;;
15856;SDS011;8028;53.612;10.038;2022-08-01T04:46:38;5.60;;;5.20;;
15856;SDS011;8028;53.612;10.038;2022-08-01T04:49:08;6.07;;;5.53;;
15856;SDS011;8028;53.612;10.038;2022-08-01T04:51:36;6.88;;;6.28;;
15856;SDS011;8028;53.612;10.038;2022-08-01T04:54:14;6.28;;;5.57;;
15856;SDS011;8028;53.612;10.038;2022-08-01T04:56:40;10.05;;;4.90;;
15856;SDS011;8028;53.612;10.038;2022-08-01T04:59:06;4.93;;;4.53;;
15856;SDS011;8028;53.612;10.038;2022-08-01T05:01:51;5.32;;;4.90;;
15856;SDS011;8028;53.612;10.038;2022-08-01T05:04:16;5.22;;;4.72;;
15856;SDS011;8028;53.612;10.038;2022-08-01T05:06:42;5.35;;;4.88;;
15856;SDS011;8028;53.612;10.038;2022-08-01T05:09:07;5.32;;;4.82;;
15856;SDS011;8028;53.612;10.038;2022-08-01T05:11:33;6.68;;;4.10;;
15856;SDS011;8028;53.612;10.038;2022-08-01T05:13:59;4.47;;;3.80;;
15856;SDS011;8028;53.612;10.038;2022-08-01T05:16:25;3.15;;;2.85;;
15856;SDS011;8028;53.612;10.038;2022-08-01T05:18:51;3.05;;;2.85;;
15856;SDS011;8028;53.612;10.038;2022-08-01T05:21:17;2.50;;;2.30;;
15856;SDS011;8028;53.612;10.038;2022-08-01T05:23:42;3.03;;;2.72;;
15856;SDS011;8028;53.612;10.038;2022-08-01T05:26:09;2.60;;;2.40;;
15856;SDS011;8028;53.612;10.038;2022-08-01T05:28:35;2.95;;;2.70;;
15856;SDS011;8028;53.612;10.038;2022-08-01T05:31:01;4.63;;;2.47;;
15856;SDS011;8028;53.612;10.038;2022-08-01T05:33:27;4.55;;;2.60;;
15856;SDS011;8028;53.612;10.038;2022-08-01T05:35:53;4.13;;;2.88;;
15856;SDS011;8028;53.612;10.038;2022-08-01T05:38:18;3.70;;;3.10;;
15856;SDS011;8028;53.612;10.038;2022-08-01T05:40:44;3.90;;;3.40;;
15856;SDS011;8028;53.612;10.038;2022-08-01T05:43:10;3.88;;;3.10;;
15856;SDS011;8028;53.612;10.038;2022-08-01T05:45:35;4.25;;;3.28;;
15856;SDS011;8028;53.612;10.038;2022-08-01T05:48:01;5.75;;;3.47;;
15856;SDS011;8028;53.612;10.038;2022-08-01T05:50:27;5.65;;;2.67;;
15856;SDS011;8028;53.612;10.038;2022-08-01T05:52:53;5.25;;;3.20;;
15856;SDS011;8028;53.612;10.038;2022-08-01T05:55:19;4.82;;;3.33;;
15856;SDS011;8028;53.612;10.038;2022-08-01T05:57:44;4.22;;;3.28;;
15856;SDS011;8028;53.612;10.038;2022-08-01T06:00:10;4.95;;;3.17;;
15856;SDS011;8028;53.612;10.038;2022-08-01T06:02:41;9.13;;;3.53;;
15856;SDS011;8028;53.612;10.038;2022-08-01T06:05:08;4.50;;;2.75;;
15856;SDS011;8028;53.612;10.038;2022-08-01T06:07:34;5.75;;;3.38;;
15856;SDS011;8028;53.612;10.038;2022-08-01T06:10:00;4.82;;;2.75;;
15856;SDS011;8028;53.612;10.038;2022-08-01T06:12:26;5.22;;;2.90;;
15856;SDS011;8028;53.612;10.038;2022-08-01T06:14:51;4.07;;;3.08;;
15856;SDS011;8028;53.612;10.038;2022-08-01T06:17:17;7.50;;;3.15;;
15856;SDS011;8028;53.612;10.038;2022-08-01T06:19:43;9.02;;;3.15;;
15856;SDS011;8028;53.612;10.038;2022-08-01T06:22:08;4.72;;;3.38;;
15856;SDS011;8028;53.612;10.038;2022-08-01T06:24:34;8.05;;;3.47;;
15856;SDS011;8028;53.612;10.038;2022-08-01T06:26:59;7.85;;;3.55;;
15856;SDS011;8028;53.612;10.038;2022-08-01T06:29:25;4.60;;;3.03;;
15856;SDS011;8028;53.612;10.038;2022-08-01T06:31:51;6.60;;;3.97;;
15856;SDS011;8028;53.612;10.038;2022-08-01T06:34:17;8.55;;;3.25;;
15856;SDS011;8028;53.612;10.038;2022-08-01T06:36:43;6.53;;;3.13;;
15856;SDS011;8028;53.612;10.038;2022-08-01T06:39:08;6.28;;;3.83;;
15856;SDS011;8028;53.612;10.038;2022-08-01T06:41:34;10.43;;;5.05;;
15856;SDS011;8028;53.612;10.038;2022-08-01T06:44:00;11.23;;;5.68;;
15856;SDS011;8028;53.612;10.038;2022-08-01T06:46:27;4.85;;;3.92;;
15856;SDS011;8028;53.612;10.038;2022-08-01T06:48:52;7.75;;;5.22;;
15856;SDS011;8028;53.612;10.038;2022-08-01T06:51:18;8.27;;;4.93;;
15856;SDS011;8028;53.612;10.038;2022-08-01T06:53:45;5.53;;;4.28;;
15856;SDS011;8028;53.612;10.038;2022-08-01T06:56:11;10.95;;;5.63;;
15856;SDS011;8028;53.612;10.038;2022-08-01T06:58:37;13.18;;;5.22;;
15856;SDS011;8028;53.612;10.038;2022-08-01T07:01:03;9.63;;;6.22;;
15856;SDS011;8028;53.612;10.038;2022-08-01T07:03:31;8.52;;;6.22;;
15856;SDS011;8028;53.612;10.038;2022-08-01T07:05:57;15.50;;;6.45;;
15856;SDS011;8028;53.612;10.038;2022-08-01T07:08:22;7.22;;;6.47;;
15856;SDS011;8028;53.612;10.038;2022-08-01T07:10:48;10.85;;;6.05;;
15856;SDS011;8028;53.612;10.038;2022-08-01T07:13:14;14.55;;;6.22;;
15856;SDS011;8028;53.612;10.038;2022-08-01T07:15:45;8.20;;;6.15;;
15856;SDS011;8028;53.612;10.038;2022-08-01T07:18:12;10.63;;;5.80;;
15856;SDS011;8028;53.612;10.038;2022-08-01T07:20:40;10.10;;;6.10;;
15856;SDS011;8028;53.612;10.038;2022-08-01T07:23:06;10.68;;;5.57;;
15856;SDS011;8028;53.612;10.038;2022-08-01T07:25:36;8.55;;;4.38;;
15856;SDS011;8028;53.612;10.038;2022-08-01T07:28:02;10.52;;;5.07;;
15856;SDS011;8028;53.612;10.038;2022-08-01T07:30:29;10.18;;;4.40;;
15856;SDS011;8028;53.612;10.038;2022-08-01T07:32:55;9.50;;;4.32;;
15856;SDS011;8028;53.612;10.038;2022-08-01T07:35:26;10.77;;;4.90;;
15856;SDS011;8028;53.612;10.038;2022-08-01T07:37:52;9.32;;;4.63;;
15856;SDS011;8028;53.612;10.038;2022-08-01T07:40:20;8.50;;;4.40;;
15856;SDS011;8028;53.612;10.038;2022-08-01T07:42:47;7.82;;;4.32;;
15856;SDS011;8028;53.612;10.038;2022-08-01T07:45:13;12.38;;;5.45;;
15856;SDS011;8028;53.612;10.038;2022-08-01T07:47:39;8.48;;;5.28;;
15856;SDS011;8028;53.612;10.038;2022-08-01T07:50:06;14.15;;;5.75;;
15856;SDS011;8028;53.612;10.038;2022-08-01T07:52:32;11.32;;;4.88;;
15856;SDS011;8028;53.612;10.038;2022-08-01T07:54:58;13.07;;;5.93;;
15856;SDS011;8028;53.612;10.038;2022-08-01T07:57:24;15.90;;;6.15;;
15856;SDS011;8028;53.612;10.038;2022-08-01T07:59:50;11.20;;;6.00;;
15856;SDS011;8028;53.612;10.038;2022-08-01T08:02:16;10.10;;;5.20;;
15856;SDS011;8028;53.612;10.038;2022-08-01T08:04:42;7.53;;;4.32;;
15856;SDS011;8028;53.612;10.038;2022-08-01T08:07:08;9.02;;;4.00;;
15856;SDS011;8028;53.612;10.038;2022-08-01T08:09:34;10.70;;;5.88;;
15856;SDS011;8028;53.612;10.038;2022-08-01T08:12:00;23.75;;;15.20;;
15856;SDS011;8028;53.612;10.038;2022-08-01T08:14:26;16.23;;;7.18;;
15856;SDS011;8028;53.612;10.038;2022-08-01T08:16:51;15.38;;;8.50;;
15856;SDS011;8028;53.612;10.038;2022-08-01T08:19:17;8.52;;;6.88;;
15856;SDS011;8028;53.612;10.038;2022-08-01T08:21:43;9.98;;;4.47;;
15856;SDS011;8028;53.612;10.038;2022-08-01T08:24:09;8.93;;;2.90;;
15856;SDS011;8028;53.612;10.038;2022-08-01T08:26:44;11.10;;;3.10;;
15856;SDS011;8028;53.612;10.038;2022-08-01T08:29:13;12.50;;;6.85;;
15856;SDS011;8028;53.612;10.038;2022-08-01T08:31:39;9.32;;;4.78;;
15856;SDS011;8028;53.612;10.038;2022-08-01T08:34:05;9.80;;;4.57;;
15856;SDS011;8028;53.612;10.038;2022-08-01T08:36:33;12.13;;;4.45;;
15856;SDS011;8028;53.612;10.038;2022-08-01T08:38:59;8.75;;;3.25;;
15856;SDS011;8028;53.612;10.038;2022-08-01T08:41:34;6.30;;;2.95;;
15856;SDS011;8028;53.612;10.038;2022-08-01T08:44:04;7.28;;;2.60;;
15856;SDS011;8028;53.612;10.038;2022-08-01T08:46:34;6.82;;;2.53;;
15856;SDS011;8028;53.612;10.038;2022-08-01T08:49:11;5.10;;;3.20;;
15856;SDS011;8028;53.612;10.038;2022-08-01T08:52:40;6.05;;;3.15;;
15856;SDS011;8028;53.612;10.038;2022-08-01T08:55:08;3.35;;;2.75;;
15856;SDS011;8028;53.612;10.038;2022-08-01T08:57:39;6.70;;;2.63;;
15856;SDS011;8028;53.612;10.038;2022-08-01T09:00:10;7.82;;;2.65;;
15856;SDS011;8028;53.612;10.038;2022-08-01T09:02:41;5.50;;;3.00;;
15856;SDS011;8028;53.612;10.038;2022-08-01T09:05:08;8.90;;;3.40;;
15856;SDS011;8028;53.612;10.038;2022-08-01T09:07:35;5.45;;;2.92;;
15856;SDS011;8028;53.612;10.038;2022-08-01T09:10:01;7.63;;;3.17;;
15856;SDS011;8028;53.612;10.038;2022-08-01T09:12:27;7.47;;;2.80;;
15856;SDS011;8028;53.612;10.038;2022-08-01T09:14:55;8.35;;;2.80;;
15856;SDS011;8028;53.612;10.038;2022-08-01T09:17:24;11.05;;;2.90;;
15856;SDS011;8028;53.612;10.038;2022-08-01T09:19:51;9.27;;;3.90;;
15856;SDS011;8028;53.612;10.038;2022-08-01T09:22:19;7.85;;;3.00;;
15856;SDS011;8028;53.612;10.038;2022-08-01T09:25:09;5.93;;;2.60;;
15856;SDS011;8028;53.612;10.038;2022-08-01T09:27:38;7.75;;;2.75;;
15856;SDS011;8028;53.612;10.038;2022-08-01T09:30:11;9.25;;;2.75;;
15856;SDS011;8028;53.612;10.038;2022-08-01T09:37:50;5.32;;;2.92;;
15856;SDS011;8028;53.612;10.038;2022-08-01T09:40:16;6.85;;;3.15;;
15856;SDS011;8028;53.612;10.038;2022-08-01T09:42:45;8.20;;;2.70;;
15856;SDS011;8028;53.612;10.038;2022-08-01T09:45:31;8.85;;;2.58;;
15856;SDS011;8028;53.612;10.038;2022-08-01T09:47:57;9.50;;;2.92;;
15856;SDS011;8028;53.612;10.038;2022-08-01T09:50:42;5.60;;;2.80;;
15856;SDS011;8028;53.612;10.038;2022-08-01T09:53:10;7.20;;;2.50;;
15856;SDS011;8028;53.612;10.038;2022-08-01T09:55:37;7.53;;;2.60;;
15856;SDS011;8028;53.612;10.038;2022-08-01T09:58:05;6.82;;;2.20;;
15856;SDS011;8028;53.612;10.038;2022-08-01T10:00:42;9.18;;;2.90;;
15856;SDS011;8028;53.612;10.038;2022-08-01T10:04:33;7.72;;;2.22;;
15856;SDS011;8028;53.612;10.038;2022-08-01T10:06:35;7.90;;;2.10;;
15856;SDS011;8028;53.612;10.038;2022-08-01T10:10:06;7.20;;;2.33;;
15856;SDS011;8028;53.612;10.038;2022-08-01T10:13:05;9.52;;;2.95;;
15856;SDS011;8028;53.612;10.038;2022-08-01T10:15:39;10.05;;;3.22;;
15856;SDS011;8028;53.612;10.038;2022-08-01T10:18:06;6.20;;;2.20;;
15856;SDS011;8028;53.612;10.038;2022-08-01T10:20:51;6.50;;;2.03;;
15856;SDS011;8028;53.612;10.038;2022-08-01T10:24:21;10.25;;;2.60;;
15856;SDS011;8028;53.612;10.038;2022-08-01T10:27:09;9.35;;;2.75;;
15856;SDS011;8028;53.612;10.038;2022-08-01T10:32:43;7.18;;;2.90;;
15856;SDS011;8028;53.612;10.038;2022-08-01T10:35:17;8.45;;;2.78;;
15856;SDS011;8028;53.612;10.038;2022-08-01T10:37:46;9.73;;;2.28;;
15856;SDS011;8028;53.612;10.038;2022-08-01T10:40:14;5.80;;;2.50;;
15856;SDS011;8028;53.612;10.038;2022-08-01T10:42:47;7.45;;;2.42;;
15856;SDS011;8028;53.612;10.038;2022-08-01T10:45:40;6.78;;;2.33;;
15856;SDS011;8028;53.612;10.038;2022-08-01T10:48:21;3.38;;;1.80;;
15856;SDS011;8028;53.612;10.038;2022-08-01T10:50:58;8.45;;;2.38;;
15856;SDS011;8028;53.612;10.038;2022-08-01T10:53:30;6.50;;;2.17;;
15856;SDS011;8028;53.612;10.038;2022-08-01T10:55:59;8.93;;;2.22;;
15856;SDS011;8028;53.612;10.038;2022-08-01T10:58:40;6.75;;;2.80;;
15856;SDS011;8028;53.612;10.038;2022-08-01T11:07:20;7.78;;;2.03;;
15856;SDS011;8028;53.612;10.038;2022-08-01T11:10:06;6.05;;;1.90;;
15856;SDS011;8028;53.612;10.038;2022-08-01T11:16:26;5.80;;;1.80;;
15856;SDS011;8028;53.612;10.038;2022-08-01T11:19:16;5.50;;;2.05;;
15856;SDS011;8028;53.612;10.038;2022-08-01T11:30:24;7.15;;;1.75;;
15856;SDS011;8028;53.612;10.038;2022-08-01T11:33:00;16.13;;;9.75;;
15856;SDS011;8028;53.612;10.038;2022-08-01T11:38:42;6.60;;;1.90;;
15856;SDS011;8028;53.612;10.038;2022-08-01T11:41:13;5.35;;;2.83;;
15856;SDS011;8028;53.612;10.038;2022-08-01T11:43:55;4.03;;;2.30;;
15856;SDS011;8028;53.612;10.038;2022-08-01T11:49:26;4.50;;;3.47;;
15856;SDS011;8028;53.612;10.038;2022-08-01T11:52:30;6.88;;;4.45;;
15856;SDS011;8028;53.612;10.038;2022-08-01T11:55:10;8.73;;;2.80;;
15856;SDS011;8028;53.612;10.038;2022-08-01T11:57:39;9.90;;;1.80;;
15856;SDS011;8028;53.612;10.038;2022-08-01T12:03:07;6.45;;;1.67;;
15856;SDS011;8028;53.612;10.038;2022-08-01T12:05:39;4.03;;;1.10;;
15856;SDS011;8028;53.612;10.038;2022-08-01T12:08:09;5.93;;;1.58;;
15856;SDS011;8028;53.612;10.038;2022-08-01T12:10:38;12.73;;;4.72;;
15856;SDS011;8028;53.612;10.038;2022-08-01T12:13:05;5.78;;;2.03;;
15856;SDS011;8028;53.612;10.038;2022-08-01T12:15:41;4.05;;;1.60;;
15856;SDS011;8028;53.612;10.038;2022-08-01T12:18:11;5.50;;;1.92;;
15856;SDS011;8028;53.612;10.038;2022-08-01T12:21:09;6.72;;;2.15;;
15856;SDS011;8028;53.612;10.038;2022-08-01T12:23:35;3.13;;;1.33;;
15856;SDS011;8028;53.612;10.038;2022-08-01T12:26:20;8.60;;;2.45;;
15856;SDS011;8028;53.612;10.038;2022-08-01T12:28:59;7.97;;;1.98;;
15856;SDS011;8028;53.612;10.038;2022-08-01T12:31:32;5.55;;;1.48;;
15856;SDS011;8028;53.612;10.038;2022-08-01T12:37:08;7.15;;;1.80;;
15856;SDS011;8028;53.612;10.038;2022-08-01T12:39:43;4.43;;;1.88;;
15856;SDS011;8028;53.612;10.038;2022-08-01T12:45:35;4.07;;;1.50;;
15856;SDS011;8028;53.612;10.038;2022-08-01T12:48:33;4.95;;;1.45;;
15856;SDS011;8028;53.612;10.038;2022-08-01T12:50:59;6.45;;;1.40;;
15856;SDS011;8028;53.612;10.038;2022-08-01T12:54:19;5.75;;;1.67;;
15856;SDS011;8028;53.612;10.038;2022-08-01T12:56:45;3.58;;;1.55;;
15856;SDS011;8028;53.612;10.038;2022-08-01T12:59:34;6.72;;;2.15;;
15856;SDS011;8028;53.612;10.038;2022-08-01T13:02:17;6.97;;;2.38;;
15856;SDS011;8028;53.612;10.038;2022-08-01T13:04:59;5.47;;;1.45;;
15856;SDS011;8028;53.612;10.038;2022-08-01T13:07:59;5.38;;;1.70;;
15856;SDS011;8028;53.612;10.038;2022-08-01T13:10:40;4.80;;;1.67;;
15856;SDS011;8028;53.612;10.038;2022-08-01T13:13:16;3.63;;;1.35;;
15856;SDS011;8028;53.612;10.038;2022-08-01T13:19:00;4.32;;;1.70;;
15856;SDS011;8028;53.612;10.038;2022-08-01T13:21:30;4.90;;;1.80;;
15856;SDS011;8028;53.612;10.038;2022-08-01T13:24:12;3.88;;;2.20;;
15856;SDS011;8028;53.612;10.038;2022-08-01T13:29:55;4.05;;;1.77;;
15856;SDS011;8028;53.612;10.038;2022-08-01T13:32:59;4.32;;;1.70;;
15856;SDS011;8028;53.612;10.038;2022-08-01T13:39:07;3.45;;;1.42;;
15856;SDS011;8028;53.612;10.038;2022-08-01T13:42:16;5.43;;;1.20;;
15856;SDS011;8028;53.612;10.038;2022-08-01T13:44:53;3.08;;;1.38;;
15856;SDS011;8028;53.612;10.038;2022-08-01T13:47:28;5.53;;;1.92;;
15856;SDS011;8028;53.612;10.038;2022-08-01T13:50:01;6.10;;;1.50;;
15856;SDS011;8028;53.612;10.038;2022-08-01T13:52:27;3.60;;;1.40;;
15856;SDS011;8028;53.612;10.038;2022-08-01T13:55:08;4.10;;;1.50;;
15856;SDS011;8028;53.612;10.038;2022-08-01T13:57:52;4.28;;;1.50;;
15856;SDS011;8028;53.612;10.038;2022-08-01T14:00:24;7.75;;;2.55;;
15856;SDS011;8028;53.612;10.038;2022-08-01T14:02:53;4.97;;;1.58;;
15856;SDS011;8028;53.612;10.038;2022-08-01T14:05:22;2.38;;;1.17;;
15856;SDS011;8028;53.612;10.038;2022-08-01T14:07:54;3.40;;;1.40;;
15856;SDS011;8028;53.612;10.038;2022-08-01T14:10:20;3.35;;;1.20;;
15856;SDS011;8028;53.612;10.038;2022-08-01T14:12:46;4.75;;;1.55;;
15856;SDS011;8028;53.612;10.038;2022-08-01T14:15:15;3.65;;;1.92;;
15856;SDS011;8028;53.612;10.038;2022-08-01T14:17:41;3.00;;;1.20;;
15856;SDS011;8028;53.612;10.038;2022-08-01T14:20:08;2.38;;;1.17;;
15856;SDS011;8028;53.612;10.038;2022-08-01T14:22:34;6.93;;;1.92;;
15856;SDS011;8028;53.612;10.038;2022-08-01T14:25:11;5.47;;;2.17;;
15856;SDS011;8028;53.612;10.038;2022-08-01T14:27:37;4.93;;;1.58;;
15856;SDS011;8028;53.612;10.038;2022-08-01T14:30:12;3.22;;;1.85;;
15856;SDS011;8028;53.612;10.038;2022-08-01T14:32:38;2.70;;;1.42;;
15856;SDS011;8028;53.612;10.038;2022-08-01T14:35:05;3.00;;;1.55;;
15856;SDS011;8028;53.612;10.038;2022-08-01T14:37:40;5.38;;;1.60;;
15856;SDS011;8028;53.612;10.038;2022-08-01T14:40:06;4.65;;;1.27;;
15856;SDS011;8028;53.612;10.038;2022-08-01T14:42:34;2.95;;;1.45;;
15856;SDS011;8028;53.612;10.038;2022-08-01T14:45:01;6.40;;;1.63;;
15856;SDS011;8028;53.612;10.038;2022-08-01T14:47:29;5.30;;;1.52;;
15856;SDS011;8028;53.612;10.038;2022-08-01T14:49:54;2.45;;;1.30;;
15856;SDS011;8028;53.612;10.038;2022-08-01T14:52:20;6.10;;;1.77;;
15856;SDS011;8028;53.612;10.038;2022-08-01T14:54:46;4.82;;;1.63;;
15856;SDS011;8028;53.612;10.038;2022-08-01T14:57:12;6.78;;;2.55;;
15856;SDS011;8028;53.612;10.038;2022-08-01T14:59:38;2.97;;;1.40;;
15856;SDS011;8028;53.612;10.038;2022-08-01T15:02:04;4.57;;;1.13;;
15856;SDS011;8028;53.612;10.038;2022-08-01T15:04:29;9.93;;;1.80;;
15856;SDS011;8028;53.612;10.038;2022-08-01T15:06:55;5.05;;;1.58;;
15856;SDS011;8028;53.612;10.038;2022-08-01T15:09:21;7.18;;;1.40;;
15856;SDS011;8028;53.612;10.038;2022-08-01T15:11:48;5.20;;;1.83;;
15856;SDS011;8028;53.612;10.038;2022-08-01T15:14:14;6.22;;;1.67;;
15856;SDS011;8028;53.612;10.038;2022-08-01T15:16:58;4.63;;;1.30;;
15856;SDS011;8028;53.612;10.038;2022-08-01T15:19:23;6.15;;;1.13;;
15856;SDS011;8028;53.612;10.038;2022-08-01T15:21:49;3.92;;;1.02;;
15856;SDS011;8028;53.612;10.038;2022-08-01T15:24:15;5.90;;;1.27;;
15856;SDS011;8028;53.612;10.038;2022-08-01T15:26:40;4.60;;;2.00;;
15856;SDS011;8028;53.612;10.038;2022-08-01T15:29:06;3.47;;;1.35;;
15856;SDS011;8028;53.612;10.038;2022-08-01T15:31:31;6.20;;;1.60;;
15856;SDS011;8028;53.612;10.038;2022-08-01T15:33:57;4.50;;;1.27;;
15856;SDS011;8028;53.612;10.038;2022-08-01T15:36:23;6.18;;;1.80;;
15856;SDS011;8028;53.612;10.038;2022-08-01T15:38:50;3.35;;;1.25;;
15856;SDS011;8028;53.612;10.038;2022-08-01T15:41:16;6.15;;;1.55;;
15856;SDS011;8028;53.612;10.038;2022-08-01T15:43:41;4.68;;;1.40;;
15856;SDS011;8028;53.612;10.038;2022-08-01T15:46:07;6.32;;;1.45;;
15856;SDS011;8028;53.612;10.038;2022-08-01T15:48:33;4.75;;;1.65;;
15856;SDS011;8028;53.612;10.038;2022-08-01T15:50:58;6.53;;;1.88;;
15856;SDS011;8028;53.612;10.038;2022-08-01T15:53:24;4.70;;;1.50;;
15856;SDS011;8028;53.612;10.038;2022-08-01T15:55:49;4.03;;;1.25;;
15856;SDS011;8028;53.612;10.038;2022-08-01T15:58:15;5.60;;;1.30;;
15856;SDS011;8028;53.612;10.038;2022-08-01T16:00:41;6.65;;;1.60;;
15856;SDS011;8028;53.612;10.038;2022-08-01T16:03:07;7.72;;;1.58;;
15856;SDS011;8028;53.612;10.038;2022-08-01T16:05:34;4.55;;;1.52;;
15856;SDS011;8028;53.612;10.038;2022-08-01T16:08:00;4.28;;;1.50;;
15856;SDS011;8028;53.612;10.038;2022-08-01T16:10:26;5.18;;;1.48;;
15856;SDS011;8028;53.612;10.038;2022-08-01T16:12:53;7.10;;;1.88;;
15856;SDS011;8028;53.612;10.038;2022-08-01T16:15:18;6.00;;;2.00;;
15856;SDS011;8028;53.612;10.038;2022-08-01T16:17:44;3.65;;;1.88;;
15856;SDS011;8028;53.612;10.038;2022-08-01T16:20:10;4.07;;;1.38;;
15856;SDS011;8028;53.612;10.038;2022-08-01T16:22:36;5.22;;;1.75;;
15856;SDS011;8028;53.612;10.038;2022-08-01T16:25:02;6.38;;;1.77;;
15856;SDS011;8028;53.612;10.038;2022-08-01T16:27:28;5.18;;;1.70;;
15856;SDS011;8028;53.612;10.038;2022-08-01T16:29:55;3.80;;;2.17;;
15856;SDS011;8028;53.612;10.038;2022-08-01T16:32:21;6.28;;;2.20;;
15856;SDS011;8028;53.612;10.038;2022-08-01T16:34:47;5.40;;;1.67;;
15856;SDS011;8028;53.612;10.038;2022-08-01T16:37:13;4.90;;;1.75;;
15856;SDS011;8028;53.612;10.038;2022-08-01T16:39:39;4.75;;;1.77;;
15856;SDS011;8028;53.612;10.038;2022-08-01T16:42:05;3.55;;;1.40;;
15856;SDS011;8028;53.612;10.038;2022-08-01T16:44:31;6.32;;;1.92;;
15856;SDS011;8028;53.612;10.038;2022-08-01T16:46:56;10.18;;;1.45;;
15856;SDS011;8028;53.612;10.038;2022-08-01T16:49:22;7.35;;;1.05;;
15856;SDS011;8028;53.612;10.038;2022-08-01T16:51:47;6.50;;;1.70;;
15856;SDS011;8028;53.612;10.038;2022-08-01T16:54:13;5.32;;;1.10;;